sensor_id;sensor_type;location;lat;lon;timestamp;P1;durP1;ratioP1;P2;durP2;ratioP2
29246;SDS011;16272;48.188;9.964;2023-08-12T00:01:14;10.02;;;4.43;;
29246;SDS011;16272;48.188;9.964;2023-08-12T00:03:40;9.30;;;4.80;;
29246;SDS011;16272;48.188;9.964;2023-08-12T00:06:05;9.50;;;4.90;;
29246;SDS011;16272;48.188;9.964;2023-08-12T00:08:31;9.07;;;4.90;;
29246;SDS011;16272;48.188;9.964;2023-08-12T00:10:56;9.87;;;5.50;;
29246;SDS011;16272;48.188;9.964;2023-08-12T00:13:21;9.80;;;5.37;;
29246;SDS011;16272;48.188;9.964;2023-08-12T00:15:47;9.00;;;5.23;;
29246;SDS011;16272;48.188;9.964;2023-08-12T00:18:12;10.90;;;6.00;;
29246;SDS011;16272;48.188;9.964;2023-08-12T00:20:37;10.37;;;5.93;;
29246;SDS011;16272;48.188;9.964;2023-08-12T00:23:03;11.87;;;6.00;;
29246;SDS011;16272;48.188;9.964;2023-08-12T00:25:29;13.98;;;5.72;;
29246;SDS011;16272;48.188;9.964;2023-08-12T00:27:54;9.90;;;5.17;;
29246;SDS011;16272;48.188;9.964;2023-08-12T00:30:19;9.83;;;5.73;;
29246;SDS011;16272;48.188;9.964;2023-08-12T00:32:45;11.77;;;5.40;;
29246;SDS011;16272;48.188;9.964;2023-08-12T00:35:10;10.93;;;6.00;;
29246;SDS011;16272;48.188;9.964;2023-08-12T00:37:35;12.50;;;5.80;;
29246;SDS011;16272;48.188;9.964;2023-08-12T00:40:00;11.77;;;5.53;;
29246;SDS011;16272;48.188;9.964;2023-08-12T00:42:26;9.70;;;5.47;;
29246;SDS011;16272;48.188;9.964;2023-08-12T00:44:51;10.80;;;5.57;;
29246;SDS011;16272;48.188;9.964;2023-08-12T00:47:17;10.53;;;5.57;;
29246;SDS011;16272;48.188;9.964;2023-08-12T00:49:42;13.70;;;5.83;;
29246;SDS011;16272;48.188;9.964;2023-08-12T00:52:12;9.90;;;5.45;;
29246;SDS011;16272;48.188;9.964;2023-08-12T00:54:38;11.70;;;5.25;;
29246;SDS011;16272;48.188;9.964;2023-08-12T00:57:03;10.23;;;5.40;;
29246;SDS011;16272;48.188;9.964;2023-08-12T00:59:29;10.17;;;5.90;;
29246;SDS011;16272;48.188;9.964;2023-08-12T01:01:54;8.63;;;5.10;;
29246;SDS011;16272;48.188;9.964;2023-08-12T01:04:19;8.63;;;4.83;;
29246;SDS011;16272;48.188;9.964;2023-08-12T01:06:45;10.10;;;4.97;;
29246;SDS011;16272;48.188;9.964;2023-08-12T01:09:10;10.97;;;5.50;;
29246;SDS011;16272;48.188;9.964;2023-08-12T01:11:40;9.83;;;5.80;;
29246;SDS011;16272;48.188;9.964;2023-08-12T01:14:12;11.05;;;6.00;;
29246;SDS011;16272;48.188;9.964;2023-08-12T01:16:39;10.52;;;5.80;;
29246;SDS011;16272;48.188;9.964;2023-08-12T01:19:10;9.30;;;5.20;;
29246;SDS011;16272;48.188;9.964;2023-08-12T01:21:43;12.45;;;6.07;;
29246;SDS011;16272;48.188;9.964;2023-08-12T01:24:09;10.47;;;6.03;;
29246;SDS011;16272;48.188;9.964;2023-08-12T01:26:35;10.90;;;6.00;;
29246;SDS011;16272;48.188;9.964;2023-08-12T01:29:00;10.80;;;6.33;;
29246;SDS011;16272;48.188;9.964;2023-08-12T01:31:33;11.40;;;6.73;;
29246;SDS011;16272;48.188;9.964;2023-08-12T01:34:11;11.68;;;6.53;;
29246;SDS011;16272;48.188;9.964;2023-08-12T01:36:41;11.87;;;6.20;;
29246;SDS011;16272;48.188;9.964;2023-08-12T01:39:14;11.52;;;6.47;;
29246;SDS011;16272;48.188;9.964;2023-08-12T01:41:41;12.52;;;7.10;;
29246;SDS011;16272;48.188;9.964;2023-08-12T01:44:06;12.97;;;6.50;;
29246;SDS011;16272;48.188;9.964;2023-08-12T01:46:32;13.65;;;6.88;;
29246;SDS011;16272;48.188;9.964;2023-08-12T01:48:57;13.10;;;7.07;;
29246;SDS011;16272;48.188;9.964;2023-08-12T01:51:22;12.57;;;7.30;;
29246;SDS011;16272;48.188;9.964;2023-08-12T01:53:48;16.43;;;8.60;;
29246;SDS011;16272;48.188;9.964;2023-08-12T01:56:13;16.07;;;8.20;;
29246;SDS011;16272;48.188;9.964;2023-08-12T01:58:38;12.93;;;7.03;;
29246;SDS011;16272;48.188;9.964;2023-08-12T02:01:04;13.70;;;7.20;;
29246;SDS011;16272;48.188;9.964;2023-08-12T02:03:29;14.33;;;7.23;;
29246;SDS011;16272;48.188;9.964;2023-08-12T02:05:54;11.70;;;6.63;;
29246;SDS011;16272;48.188;9.964;2023-08-12T02:08:19;11.43;;;6.97;;
29246;SDS011;16272;48.188;9.964;2023-08-12T02:10:45;12.37;;;7.33;;
29246;SDS011;16272;48.188;9.964;2023-08-12T02:13:10;11.70;;;5.93;;
29246;SDS011;16272;48.188;9.964;2023-08-12T02:15:36;11.63;;;6.70;;
29246;SDS011;16272;48.188;9.964;2023-08-12T02:18:01;13.37;;;7.17;;
29246;SDS011;16272;48.188;9.964;2023-08-12T02:20:26;13.88;;;7.68;;
29246;SDS011;16272;48.188;9.964;2023-08-12T02:22:52;13.70;;;6.53;;
29246;SDS011;16272;48.188;9.964;2023-08-12T02:25:17;13.37;;;7.57;;
29246;SDS011;16272;48.188;9.964;2023-08-12T02:27:42;12.67;;;7.90;;
29246;SDS011;16272;48.188;9.964;2023-08-12T02:30:08;12.80;;;8.05;;
29246;SDS011;16272;48.188;9.964;2023-08-12T02:32:34;12.77;;;7.73;;
29246;SDS011;16272;48.188;9.964;2023-08-12T02:34:59;12.43;;;7.20;;
29246;SDS011;16272;48.188;9.964;2023-08-12T02:37:24;12.70;;;7.30;;
29246;SDS011;16272;48.188;9.964;2023-08-12T02:39:50;12.20;;;7.50;;
29246;SDS011;16272;48.188;9.964;2023-08-12T02:42:15;14.73;;;7.33;;
29246;SDS011;16272;48.188;9.964;2023-08-12T02:44:40;12.67;;;7.30;;
29246;SDS011;16272;48.188;9.964;2023-08-12T02:47:05;13.07;;;7.97;;
29246;SDS011;16272;48.188;9.964;2023-08-12T02:49:31;14.30;;;7.80;;
29246;SDS011;16272;48.188;9.964;2023-08-12T02:51:56;14.20;;;7.23;;
29246;SDS011;16272;48.188;9.964;2023-08-12T02:54:21;17.23;;;7.63;;
29246;SDS011;16272;48.188;9.964;2023-08-12T02:56:47;12.70;;;7.87;;
29246;SDS011;16272;48.188;9.964;2023-08-12T02:59:12;15.17;;;7.63;;
29246;SDS011;16272;48.188;9.964;2023-08-12T03:01:38;13.97;;;8.20;;
29246;SDS011;16272;48.188;9.964;2023-08-12T03:04:05;12.15;;;7.47;;
29246;SDS011;16272;48.188;9.964;2023-08-12T03:06:31;13.30;;;8.53;;
29246;SDS011;16272;48.188;9.964;2023-08-12T03:08:56;13.90;;;8.05;;
29246;SDS011;16272;48.188;9.964;2023-08-12T03:11:21;13.40;;;8.37;;
29246;SDS011;16272;48.188;9.964;2023-08-12T03:13:47;13.30;;;8.13;;
29246;SDS011;16272;48.188;9.964;2023-08-12T03:16:12;13.20;;;8.07;;
29246;SDS011;16272;48.188;9.964;2023-08-12T03:18:39;14.73;;;8.05;;
29246;SDS011;16272;48.188;9.964;2023-08-12T03:21:07;12.17;;;7.37;;
29246;SDS011;16272;48.188;9.964;2023-08-12T03:23:37;13.27;;;7.25;;
29246;SDS011;16272;48.188;9.964;2023-08-12T03:26:02;14.07;;;7.50;;
29246;SDS011;16272;48.188;9.964;2023-08-12T03:28:28;13.50;;;7.40;;
29246;SDS011;16272;48.188;9.964;2023-08-12T03:30:53;12.07;;;7.03;;
29246;SDS011;16272;48.188;9.964;2023-08-12T03:33:19;13.23;;;7.20;;
29246;SDS011;16272;48.188;9.964;2023-08-12T03:35:45;13.05;;;7.70;;
29246;SDS011;16272;48.188;9.964;2023-08-12T03:38:11;13.00;;;6.73;;
29246;SDS011;16272;48.188;9.964;2023-08-12T03:40:39;11.57;;;7.13;;
29246;SDS011;16272;48.188;9.964;2023-08-12T03:43:05;11.90;;;6.33;;
29246;SDS011;16272;48.188;9.964;2023-08-12T03:45:30;12.07;;;7.00;;
29246;SDS011;16272;48.188;9.964;2023-08-12T03:47:55;11.57;;;6.40;;
29246;SDS011;16272;48.188;9.964;2023-08-12T03:50:21;12.10;;;6.13;;
29246;SDS011;16272;48.188;9.964;2023-08-12T03:52:46;10.73;;;6.00;;
29246;SDS011;16272;48.188;9.964;2023-08-12T03:55:11;13.32;;;6.28;;
29246;SDS011;16272;48.188;9.964;2023-08-12T03:57:37;11.23;;;6.33;;
29246;SDS011;16272;48.188;9.964;2023-08-12T04:00:02;12.43;;;6.33;;
29246;SDS011;16272;48.188;9.964;2023-08-12T04:02:29;10.88;;;6.30;;
29246;SDS011;16272;48.188;9.964;2023-08-12T04:04:54;11.37;;;6.30;;
29246;SDS011;16272;48.188;9.964;2023-08-12T04:07:19;12.03;;;6.00;;
29246;SDS011;16272;48.188;9.964;2023-08-12T04:09:45;11.77;;;6.30;;
29246;SDS011;16272;48.188;9.964;2023-08-12T04:12:10;12.23;;;6.03;;
29246;SDS011;16272;48.188;9.964;2023-08-12T04:14:35;11.30;;;6.13;;
29246;SDS011;16272;48.188;9.964;2023-08-12T04:17:01;10.33;;;5.93;;
29246;SDS011;16272;48.188;9.964;2023-08-12T04:19:26;9.87;;;5.57;;
29246;SDS011;16272;48.188;9.964;2023-08-12T04:21:51;10.20;;;5.77;;
29246;SDS011;16272;48.188;9.964;2023-08-12T04:24:16;13.00;;;6.80;;
29246;SDS011;16272;48.188;9.964;2023-08-12T04:26:42;10.17;;;5.83;;
29246;SDS011;16272;48.188;9.964;2023-08-12T04:29:07;10.67;;;6.53;;
29246;SDS011;16272;48.188;9.964;2023-08-12T04:31:32;10.80;;;5.47;;
29246;SDS011;16272;48.188;9.964;2023-08-12T04:33:58;11.77;;;6.20;;
29246;SDS011;16272;48.188;9.964;2023-08-12T04:36:23;11.83;;;6.23;;
29246;SDS011;16272;48.188;9.964;2023-08-12T04:38:48;10.67;;;5.63;;
29246;SDS011;16272;48.188;9.964;2023-08-12T04:41:15;11.40;;;6.05;;
29246;SDS011;16272;48.188;9.964;2023-08-12T04:43:40;11.03;;;6.03;;
29246;SDS011;16272;48.188;9.964;2023-08-12T04:46:06;11.25;;;6.18;;
29246;SDS011;16272;48.188;9.964;2023-08-12T04:48:31;10.83;;;5.90;;
29246;SDS011;16272;48.188;9.964;2023-08-12T04:50:57;10.13;;;5.73;;
29246;SDS011;16272;48.188;9.964;2023-08-12T04:53:26;10.18;;;5.85;;
29246;SDS011;16272;48.188;9.964;2023-08-12T04:55:51;10.07;;;6.10;;
29246;SDS011;16272;48.188;9.964;2023-08-12T04:58:17;10.43;;;5.70;;
29246;SDS011;16272;48.188;9.964;2023-08-12T05:00:42;11.53;;;6.10;;
29246;SDS011;16272;48.188;9.964;2023-08-12T05:03:07;10.33;;;5.70;;
29246;SDS011;16272;48.188;9.964;2023-08-12T05:05:33;12.00;;;5.40;;
29246;SDS011;16272;48.188;9.964;2023-08-12T05:07:58;12.33;;;6.00;;
29246;SDS011;16272;48.188;9.964;2023-08-12T05:10:23;10.33;;;6.00;;
29246;SDS011;16272;48.188;9.964;2023-08-12T05:12:48;10.80;;;5.70;;
29246;SDS011;16272;48.188;9.964;2023-08-12T05:15:15;11.20;;;5.90;;
29246;SDS011;16272;48.188;9.964;2023-08-12T05:17:40;10.23;;;6.13;;
29246;SDS011;16272;48.188;9.964;2023-08-12T05:20:06;12.67;;;5.70;;
29246;SDS011;16272;48.188;9.964;2023-08-12T05:22:32;9.93;;;5.75;;
29246;SDS011;16272;48.188;9.964;2023-08-12T05:24:57;9.77;;;5.47;;
29246;SDS011;16272;48.188;9.964;2023-08-12T05:27:22;9.47;;;5.60;;
29246;SDS011;16272;48.188;9.964;2023-08-12T05:29:48;10.93;;;6.23;;
29246;SDS011;16272;48.188;9.964;2023-08-12T05:32:13;10.47;;;6.00;;
29246;SDS011;16272;48.188;9.964;2023-08-12T05:34:38;10.90;;;5.93;;
29246;SDS011;16272;48.188;9.964;2023-08-12T05:37:04;10.70;;;6.00;;
29246;SDS011;16272;48.188;9.964;2023-08-12T05:39:29;10.00;;;5.77;;
29246;SDS011;16272;48.188;9.964;2023-08-12T05:41:54;10.35;;;5.88;;
29246;SDS011;16272;48.188;9.964;2023-08-12T05:44:19;12.17;;;6.03;;
29246;SDS011;16272;48.188;9.964;2023-08-12T05:46:45;10.40;;;6.10;;
29246;SDS011;16272;48.188;9.964;2023-08-12T05:49:11;11.90;;;6.37;;
29246;SDS011;16272;48.188;9.964;2023-08-12T05:51:36;10.50;;;5.65;;
29246;SDS011;16272;48.188;9.964;2023-08-12T05:54:03;11.40;;;6.20;;
29246;SDS011;16272;48.188;9.964;2023-08-12T05:56:28;10.38;;;5.90;;
29246;SDS011;16272;48.188;9.964;2023-08-12T05:58:54;12.77;;;6.27;;
29246;SDS011;16272;48.188;9.964;2023-08-12T06:01:19;9.70;;;5.97;;
29246;SDS011;16272;48.188;9.964;2023-08-12T06:03:44;11.07;;;5.77;;
29246;SDS011;16272;48.188;9.964;2023-08-12T06:06:09;12.50;;;6.00;;
29246;SDS011;16272;48.188;9.964;2023-08-12T06:08:35;10.57;;;5.53;;
29246;SDS011;16272;48.188;9.964;2023-08-12T06:11:00;9.93;;;6.23;;
29246;SDS011;16272;48.188;9.964;2023-08-12T06:13:26;10.43;;;6.10;;
29246;SDS011;16272;48.188;9.964;2023-08-12T06:15:51;10.47;;;6.00;;
29246;SDS011;16272;48.188;9.964;2023-08-12T06:18:16;11.30;;;6.23;;
29246;SDS011;16272;48.188;9.964;2023-08-12T06:20:42;10.97;;;6.40;;
29246;SDS011;16272;48.188;9.964;2023-08-12T06:23:07;10.80;;;5.80;;
29246;SDS011;16272;48.188;9.964;2023-08-12T06:25:32;10.67;;;5.90;;
29246;SDS011;16272;48.188;9.964;2023-08-12T06:27:58;10.57;;;6.18;;
29246;SDS011;16272;48.188;9.964;2023-08-12T06:30:23;10.37;;;6.00;;
29246;SDS011;16272;48.188;9.964;2023-08-12T06:32:49;9.40;;;6.10;;
29246;SDS011;16272;48.188;9.964;2023-08-12T06:35:14;10.23;;;6.07;;
29246;SDS011;16272;48.188;9.964;2023-08-12T06:37:39;11.20;;;6.80;;
29246;SDS011;16272;48.188;9.964;2023-08-12T06:40:05;11.23;;;6.77;;
29246;SDS011;16272;48.188;9.964;2023-08-12T06:42:31;11.15;;;6.68;;
29246;SDS011;16272;48.188;9.964;2023-08-12T06:44:57;13.20;;;6.53;;
29246;SDS011;16272;48.188;9.964;2023-08-12T06:47:23;11.10;;;5.95;;
29246;SDS011;16272;48.188;9.964;2023-08-12T06:49:48;11.03;;;6.93;;
29246;SDS011;16272;48.188;9.964;2023-08-12T06:52:13;11.60;;;6.77;;
29246;SDS011;16272;48.188;9.964;2023-08-12T06:54:39;10.50;;;6.27;;
29246;SDS011;16272;48.188;9.964;2023-08-12T06:57:04;11.77;;;7.30;;
29246;SDS011;16272;48.188;9.964;2023-08-12T06:59:29;10.87;;;6.10;;
29246;SDS011;16272;48.188;9.964;2023-08-12T07:01:54;9.80;;;6.10;;
29246;SDS011;16272;48.188;9.964;2023-08-12T07:04:20;11.87;;;6.47;;
29246;SDS011;16272;48.188;9.964;2023-08-12T07:06:45;11.77;;;6.20;;
29246;SDS011;16272;48.188;9.964;2023-08-12T07:09:11;11.30;;;6.90;;
29246;SDS011;16272;48.188;9.964;2023-08-12T07:11:36;11.97;;;6.77;;
29246;SDS011;16272;48.188;9.964;2023-08-12T07:14:01;12.30;;;6.40;;
29246;SDS011;16272;48.188;9.964;2023-08-12T07:16:26;10.57;;;6.57;;
29246;SDS011;16272;48.188;9.964;2023-08-12T07:18:52;11.00;;;6.27;;
29246;SDS011;16272;48.188;9.964;2023-08-12T07:21:17;10.10;;;6.37;;
29246;SDS011;16272;48.188;9.964;2023-08-12T07:23:42;10.40;;;6.60;;
29246;SDS011;16272;48.188;9.964;2023-08-12T07:26:07;10.73;;;6.03;;
29246;SDS011;16272;48.188;9.964;2023-08-12T07:28:33;11.60;;;6.20;;
29246;SDS011;16272;48.188;9.964;2023-08-12T07:31:00;10.60;;;6.30;;
29246;SDS011;16272;48.188;9.964;2023-08-12T07:33:26;10.32;;;6.38;;
29246;SDS011;16272;48.188;9.964;2023-08-12T07:35:51;10.43;;;6.00;;
29246;SDS011;16272;48.188;9.964;2023-08-12T07:38:17;9.97;;;6.07;;
29246;SDS011;16272;48.188;9.964;2023-08-12T07:40:42;10.70;;;5.73;;
29246;SDS011;16272;48.188;9.964;2023-08-12T07:43:07;9.03;;;5.87;;
29246;SDS011;16272;48.188;9.964;2023-08-12T07:45:33;9.53;;;5.70;;
29246;SDS011;16272;48.188;9.964;2023-08-12T07:47:58;9.17;;;5.87;;
29246;SDS011;16272;48.188;9.964;2023-08-12T07:50:23;9.87;;;6.00;;
29246;SDS011;16272;48.188;9.964;2023-08-12T07:52:49;10.00;;;5.90;;
29246;SDS011;16272;48.188;9.964;2023-08-12T07:55:14;9.50;;;5.73;;
29246;SDS011;16272;48.188;9.964;2023-08-12T07:57:40;10.57;;;5.80;;
29246;SDS011;16272;48.188;9.964;2023-08-12T08:00:05;10.60;;;5.43;;
29246;SDS011;16272;48.188;9.964;2023-08-12T08:02:32;9.10;;;5.20;;
29246;SDS011;16272;48.188;9.964;2023-08-12T08:04:58;11.70;;;5.47;;
29246;SDS011;16272;48.188;9.964;2023-08-12T08:07:23;9.50;;;5.80;;
29246;SDS011;16272;48.188;9.964;2023-08-12T08:09:48;11.77;;;5.63;;
29246;SDS011;16272;48.188;9.964;2023-08-12T08:12:16;11.57;;;6.17;;
29246;SDS011;16272;48.188;9.964;2023-08-12T08:14:41;11.63;;;6.13;;
29246;SDS011;16272;48.188;9.964;2023-08-12T08:17:08;10.37;;;5.77;;
29246;SDS011;16272;48.188;9.964;2023-08-12T08:19:33;10.65;;;6.03;;
29246;SDS011;16272;48.188;9.964;2023-08-12T08:21:59;10.90;;;5.90;;
29246;SDS011;16272;48.188;9.964;2023-08-12T08:24:24;9.37;;;5.70;;
29246;SDS011;16272;48.188;9.964;2023-08-12T08:26:49;9.90;;;6.00;;
29246;SDS011;16272;48.188;9.964;2023-08-12T08:29:15;8.80;;;5.60;;
29246;SDS011;16272;48.188;9.964;2023-08-12T08:31:40;9.03;;;5.37;;
29246;SDS011;16272;48.188;9.964;2023-08-12T08:34:05;8.97;;;5.40;;
29246;SDS011;16272;48.188;9.964;2023-08-12T08:36:31;8.80;;;5.05;;
29246;SDS011;16272;48.188;9.964;2023-08-12T08:38:57;8.27;;;5.30;;
29246;SDS011;16272;48.188;9.964;2023-08-12T08:41:22;8.00;;;5.17;;
29246;SDS011;16272;48.188;9.964;2023-08-12T08:43:49;9.55;;;4.75;;
29246;SDS011;16272;48.188;9.964;2023-08-12T08:46:17;12.20;;;5.10;;
29246;SDS011;16272;48.188;9.964;2023-08-12T08:48:43;8.03;;;4.57;;
29246;SDS011;16272;48.188;9.964;2023-08-12T08:51:11;8.50;;;4.57;;
29246;SDS011;16272;48.188;9.964;2023-08-12T08:53:38;8.73;;;4.88;;
29246;SDS011;16272;48.188;9.964;2023-08-12T08:56:07;9.45;;;5.20;;
29246;SDS011;16272;48.188;9.964;2023-08-12T08:58:36;8.20;;;4.65;;
29246;SDS011;16272;48.188;9.964;2023-08-12T09:01:02;7.73;;;4.40;;
29246;SDS011;16272;48.188;9.964;2023-08-12T09:03:28;8.75;;;4.95;;
29246;SDS011;16272;48.188;9.964;2023-08-12T09:05:54;8.60;;;4.80;;
29246;SDS011;16272;48.188;9.964;2023-08-12T09:08:20;9.10;;;4.95;;
29246;SDS011;16272;48.188;9.964;2023-08-12T09:10:47;9.43;;;5.47;;
29246;SDS011;16272;48.188;9.964;2023-08-12T09:13:13;8.02;;;4.95;;
29246;SDS011;16272;48.188;9.964;2023-08-12T09:15:39;9.43;;;4.53;;
29246;SDS011;16272;48.188;9.964;2023-08-12T09:18:05;8.53;;;5.23;;
29246;SDS011;16272;48.188;9.964;2023-08-12T09:20:31;8.20;;;5.05;;
29246;SDS011;16272;48.188;9.964;2023-08-12T09:22:58;9.27;;;4.67;;
29246;SDS011;16272;48.188;9.964;2023-08-12T09:25:25;8.13;;;5.60;;
29246;SDS011;16272;48.188;9.964;2023-08-12T09:27:53;8.18;;;4.95;;
29246;SDS011;16272;48.188;9.964;2023-08-12T09:30:20;8.43;;;5.00;;
29246;SDS011;16272;48.188;9.964;2023-08-12T09:32:57;9.80;;;5.50;;
29246;SDS011;16272;48.188;9.964;2023-08-12T09:35:23;7.70;;;4.60;;
29246;SDS011;16272;48.188;9.964;2023-08-12T09:37:55;8.80;;;5.00;;
29246;SDS011;16272;48.188;9.964;2023-08-12T09:40:21;8.60;;;5.07;;
29246;SDS011;16272;48.188;9.964;2023-08-12T09:42:47;8.83;;;4.70;;
29246;SDS011;16272;48.188;9.964;2023-08-12T09:45:12;9.73;;;4.95;;
29246;SDS011;16272;48.188;9.964;2023-08-12T09:47:38;8.83;;;5.07;;
29246;SDS011;16272;48.188;9.964;2023-08-12T09:50:06;9.02;;;4.90;;
29246;SDS011;16272;48.188;9.964;2023-08-12T09:52:32;8.20;;;4.90;;
29246;SDS011;16272;48.188;9.964;2023-08-12T09:54:57;9.50;;;5.10;;
29246;SDS011;16272;48.188;9.964;2023-08-12T09:57:26;9.68;;;5.40;;
29246;SDS011;16272;48.188;9.964;2023-08-12T09:59:54;11.50;;;5.55;;
29246;SDS011;16272;48.188;9.964;2023-08-12T10:02:22;8.38;;;5.25;;
29246;SDS011;16272;48.188;9.964;2023-08-12T10:04:49;8.63;;;5.70;;
29246;SDS011;16272;48.188;9.964;2023-08-12T10:07:18;8.17;;;4.63;;
29246;SDS011;16272;48.188;9.964;2023-08-12T10:09:44;7.80;;;5.20;;
29246;SDS011;16272;48.188;9.964;2023-08-12T10:12:10;8.15;;;5.40;;
29246;SDS011;16272;48.188;9.964;2023-08-12T10:14:36;10.30;;;5.50;;
29246;SDS011;16272;48.188;9.964;2023-08-12T10:17:03;10.75;;;5.82;;
29246;SDS011;16272;48.188;9.964;2023-08-12T10:19:29;9.15;;;5.10;;
29246;SDS011;16272;48.188;9.964;2023-08-12T10:21:56;9.68;;;5.18;;
29246;SDS011;16272;48.188;9.964;2023-08-12T10:24:23;9.05;;;5.50;;
29246;SDS011;16272;48.188;9.964;2023-08-12T10:26:51;10.43;;;5.23;;
29246;SDS011;16272;48.188;9.964;2023-08-12T10:29:17;8.85;;;5.07;;
29246;SDS011;16272;48.188;9.964;2023-08-12T10:31:43;9.15;;;5.65;;
29246;SDS011;16272;48.188;9.964;2023-08-12T10:34:17;9.73;;;5.57;;
29246;SDS011;16272;48.188;9.964;2023-08-12T10:36:47;9.13;;;5.67;;
29246;SDS011;16272;48.188;9.964;2023-08-12T10:39:13;8.43;;;5.38;;
29246;SDS011;16272;48.188;9.964;2023-08-12T10:41:39;8.82;;;5.70;;
29246;SDS011;16272;48.188;9.964;2023-08-12T10:44:16;8.25;;;5.15;;
29246;SDS011;16272;48.188;9.964;2023-08-12T10:46:41;9.40;;;6.10;;
29246;SDS011;16272;48.188;9.964;2023-08-12T10:49:15;8.63;;;5.43;;
29246;SDS011;16272;48.188;9.964;2023-08-12T10:51:50;9.17;;;5.57;;
29246;SDS011;16272;48.188;9.964;2023-08-12T11:04:52;8.77;;;5.40;;
29246;SDS011;16272;48.188;9.964;2023-08-12T11:07:44;11.35;;;5.78;;
29246;SDS011;16272;48.188;9.964;2023-08-12T11:10:15;10.43;;;6.07;;
29246;SDS011;16272;48.188;9.964;2023-08-12T11:12:47;8.48;;;5.30;;
29246;SDS011;16272;48.188;9.964;2023-08-12T11:18:17;8.63;;;5.47;;
29246;SDS011;16272;48.188;9.964;2023-08-12T11:20:44;8.98;;;5.05;;
29246;SDS011;16272;48.188;9.964;2023-08-12T11:23:11;8.05;;;5.22;;
29246;SDS011;16272;48.188;9.964;2023-08-12T11:25:37;9.10;;;4.73;;
29246;SDS011;16272;48.188;9.964;2023-08-12T11:28:04;7.95;;;5.22;;
29246;SDS011;16272;48.188;9.964;2023-08-12T11:30:31;8.65;;;5.30;;
29246;SDS011;16272;48.188;9.964;2023-08-12T11:32:56;10.33;;;5.37;;
29246;SDS011;16272;48.188;9.964;2023-08-12T11:35:23;9.20;;;5.60;;
29246;SDS011;16272;48.188;9.964;2023-08-12T11:37:50;9.30;;;5.80;;
29246;SDS011;16272;48.188;9.964;2023-08-12T11:40:23;8.20;;;4.93;;
29246;SDS011;16272;48.188;9.964;2023-08-12T11:42:51;9.02;;;4.78;;
29246;SDS011;16272;48.188;9.964;2023-08-12T11:45:18;8.45;;;5.13;;
29246;SDS011;16272;48.188;9.964;2023-08-12T11:47:44;8.30;;;5.40;;
29246;SDS011;16272;48.188;9.964;2023-08-12T11:50:12;8.15;;;4.60;;
29246;SDS011;16272;48.188;9.964;2023-08-12T11:52:38;11.53;;;5.30;;
29246;SDS011;16272;48.188;9.964;2023-08-12T11:55:04;9.13;;;5.80;;
29246;SDS011;16272;48.188;9.964;2023-08-12T11:57:31;8.63;;;5.45;;
29246;SDS011;16272;48.188;9.964;2023-08-12T12:00:03;8.73;;;5.82;;
29246;SDS011;16272;48.188;9.964;2023-08-12T12:02:51;8.47;;;5.47;;
29246;SDS011;16272;48.188;9.964;2023-08-12T12:05:18;8.23;;;4.53;;
29246;SDS011;16272;48.188;9.964;2023-08-12T12:07:48;7.80;;;4.70;;
29246;SDS011;16272;48.188;9.964;2023-08-12T12:10:17;8.18;;;4.70;;
29246;SDS011;16272;48.188;9.964;2023-08-12T12:12:50;8.13;;;4.70;;
29246;SDS011;16272;48.188;9.964;2023-08-12T12:15:16;7.77;;;4.80;;
29246;SDS011;16272;48.188;9.964;2023-08-12T12:17:41;7.83;;;4.93;;
29246;SDS011;16272;48.188;9.964;2023-08-12T12:20:06;8.77;;;5.50;;
29246;SDS011;16272;48.188;9.964;2023-08-12T12:22:36;7.95;;;4.78;;
29246;SDS011;16272;48.188;9.964;2023-08-12T12:25:08;8.30;;;5.00;;
29246;SDS011;16272;48.188;9.964;2023-08-12T12:27:35;7.97;;;4.90;;
29246;SDS011;16272;48.188;9.964;2023-08-12T12:30:02;9.02;;;4.97;;
29246;SDS011;16272;48.188;9.964;2023-08-12T12:32:28;8.93;;;5.25;;
29246;SDS011;16272;48.188;9.964;2023-08-12T12:34:54;8.77;;;4.78;;
29246;SDS011;16272;48.188;9.964;2023-08-12T12:37:20;9.77;;;5.00;;
29246;SDS011;16272;48.188;9.964;2023-08-12T12:39:45;7.75;;;4.65;;
29246;SDS011;16272;48.188;9.964;2023-08-12T12:42:11;9.10;;;4.90;;
29246;SDS011;16272;48.188;9.964;2023-08-12T12:44:36;18.83;;;4.90;;
29246;SDS011;16272;48.188;9.964;2023-08-12T12:47:05;7.90;;;4.70;;
29246;SDS011;16272;48.188;9.964;2023-08-12T12:49:30;8.00;;;4.65;;
29246;SDS011;16272;48.188;9.964;2023-08-12T12:51:55;8.37;;;4.70;;
29246;SDS011;16272;48.188;9.964;2023-08-12T12:54:21;8.10;;;4.60;;
29246;SDS011;16272;48.188;9.964;2023-08-12T12:56:46;9.47;;;4.30;;
29246;SDS011;16272;48.188;9.964;2023-08-12T12:59:11;8.40;;;4.63;;
29246;SDS011;16272;48.188;9.964;2023-08-12T13:01:39;9.30;;;4.70;;
29246;SDS011;16272;48.188;9.964;2023-08-12T13:04:04;8.20;;;5.00;;
29246;SDS011;16272;48.188;9.964;2023-08-12T13:06:30;7.90;;;4.70;;
29246;SDS011;16272;48.188;9.964;2023-08-12T13:08:55;8.83;;;4.67;;
29246;SDS011;16272;48.188;9.964;2023-08-12T13:11:20;10.37;;;5.23;;
29246;SDS011;16272;48.188;9.964;2023-08-12T13:13:46;9.30;;;4.90;;
29246;SDS011;16272;48.188;9.964;2023-08-12T13:16:11;7.73;;;4.67;;
29246;SDS011;16272;48.188;9.964;2023-08-12T13:18:36;7.95;;;5.05;;
29246;SDS011;16272;48.188;9.964;2023-08-12T13:21:02;8.30;;;5.47;;
29246;SDS011;16272;48.188;9.964;2023-08-12T13:23:27;8.83;;;5.03;;
29246;SDS011;16272;48.188;9.964;2023-08-12T13:25:52;8.60;;;5.30;;
29246;SDS011;16272;48.188;9.964;2023-08-12T13:28:18;12.07;;;4.87;;
29246;SDS011;16272;48.188;9.964;2023-08-12T13:30:44;8.98;;;5.57;;
29246;SDS011;16272;48.188;9.964;2023-08-12T13:33:10;8.55;;;5.35;;
29246;SDS011;16272;48.188;9.964;2023-08-12T13:35:36;8.23;;;4.67;;
29246;SDS011;16272;48.188;9.964;2023-08-12T13:38:01;7.17;;;4.20;;
29246;SDS011;16272;48.188;9.964;2023-08-12T13:40:26;8.57;;;4.67;;
29246;SDS011;16272;48.188;9.964;2023-08-12T13:42:52;9.03;;;4.80;;
29246;SDS011;16272;48.188;9.964;2023-08-12T13:45:17;9.23;;;4.43;;
29246;SDS011;16272;48.188;9.964;2023-08-12T13:47:43;7.93;;;4.20;;
29246;SDS011;16272;48.188;9.964;2023-08-12T13:50:08;8.27;;;4.50;;
29246;SDS011;16272;48.188;9.964;2023-08-12T13:52:34;9.20;;;5.30;;
29246;SDS011;16272;48.188;9.964;2023-08-12T13:54:59;9.60;;;5.43;;
29246;SDS011;16272;48.188;9.964;2023-08-12T13:57:24;9.77;;;3.87;;
29246;SDS011;16272;48.188;9.964;2023-08-12T13:59:49;9.23;;;4.50;;
29246;SDS011;16272;48.188;9.964;2023-08-12T14:02:15;8.37;;;4.57;;
29246;SDS011;16272;48.188;9.964;2023-08-12T14:04:40;10.37;;;4.77;;
29246;SDS011;16272;48.188;9.964;2023-08-12T14:07:05;8.80;;;4.43;;
29246;SDS011;16272;48.188;9.964;2023-08-12T14:09:31;7.83;;;4.43;;
29246;SDS011;16272;48.188;9.964;2023-08-12T14:11:56;8.00;;;4.90;;
29246;SDS011;16272;48.188;9.964;2023-08-12T14:14:22;8.60;;;4.73;;
29246;SDS011;16272;48.188;9.964;2023-08-12T14:16:48;8.18;;;4.43;;
29246;SDS011;16272;48.188;9.964;2023-08-12T14:19:13;7.73;;;4.37;;
29246;SDS011;16272;48.188;9.964;2023-08-12T14:21:41;9.38;;;4.50;;
29246;SDS011;16272;48.188;9.964;2023-08-12T14:24:07;7.90;;;4.30;;
29246;SDS011;16272;48.188;9.964;2023-08-12T14:26:32;7.20;;;3.80;;
29246;SDS011;16272;48.188;9.964;2023-08-12T14:28:57;7.90;;;4.00;;
29246;SDS011;16272;48.188;9.964;2023-08-12T14:31:22;7.27;;;4.13;;
29246;SDS011;16272;48.188;9.964;2023-08-12T14:33:48;7.60;;;4.15;;
29246;SDS011;16272;48.188;9.964;2023-08-12T14:36:13;7.33;;;4.20;;
29246;SDS011;16272;48.188;9.964;2023-08-12T14:38:39;9.73;;;3.97;;
29246;SDS011;16272;48.188;9.964;2023-08-12T14:41:04;8.70;;;4.03;;
29246;SDS011;16272;48.188;9.964;2023-08-12T14:43:29;10.30;;;4.10;;
29246;SDS011;16272;48.188;9.964;2023-08-12T14:45:54;7.23;;;4.23;;
29246;SDS011;16272;48.188;9.964;2023-08-12T14:48:20;8.17;;;4.33;;